Amory, Mississippi
Current Conditions -  °F | °C
As of 8:15 AM on Thursday 27 Nov 2014 (Local Time) from KM40 Reporting Station
Broken Clouds Broken Clouds  
Wind Chill: 39°   Ceiling: 3300
Heat Index: 45°   Visibility: 8mi
Dew Point: 30°   Wind: 10mph
Humidity: 57%   Direction: 320°NW
Pressure: 30.43"   Gusts: 20mph
Location:  33.99°N, 88.49°W
Report Text: KM40 271415Z AUTO 32009G17KT 8SM BKN033 07/M01 A3043 RMK AO2
Loading
Personal Weather Stations






























Interactive Weather Map New forecast layout! Learn more

10-Day Weather Forecast

Advertisements
Track Severe Weather on mobile